• Join FlightAware (Why Join?)
  • Login
  • US Flag 
01:30PM EDT


 

Airport Tracker/Info


-or-


 

Live Flight TrackerFlight Track Log ✈ N775NC ✈ 15-Aug-2013 ✈ KPHL - KDTW

Flight Track Log - Related Links

Times and Time Zones

All times are in EDT time to prevent confusion due to time zone crossing. See the N775NC flight status page for this flight to view local times or setup timezone preferences in your user account.

Time Position Orientation Groundspeed Altitude Reporting Facility
EDT Latitude Longitude Course Direction KTS MPH feet Rate Location/Type
07:51AM 39.8667 -75.2833 270° West 169 194 800  Level Philadelphia TRACON
07:53AM 39.8117 -75.4650 249° West 252 290 4,900 1,980 Climbing New York Center
07:54AM 39.9068 -75.7258 258° West  Level FlightAware Approximate
07:54AM 39.8353 -75.5506 290° West 246 283 7,600  Level New York Center
07:55AM 39.9001 -75.8523 270° West  Level FlightAware Approximate
07:55AM 39.8847 -75.6189 313° West 240 276 9,600  Level New York Center
07:56AM 39.9000 -75.9797 270° West  Level FlightAware Approximate
07:56AM 39.9078 -75.7125 288° West 260 299 11,700  Level New York Center
07:57AM 39.9100 -75.8072 272° West 266 306 13,300 1,260 Climbing New York Center
07:58AM 39.9119 -75.9103 271° West 283 326 14,300 1,140 Climbing New York Center
07:59AM 39.9114 -76.0131 270° West 306 352 15,700 1,500 Climbing New York Center
08:00AM 39.9097 -76.1456 269° West 327 376 17,300 1,380 Climbing New York Center
08:01AM 39.9106 -76.2647 271° West 327 376 18,500 1,140 Climbing New York Center
08:02AM 39.9086 -76.3919 269° West 334 384 19,700 1,260 Climbing New York Center
08:03AM 39.9028 -76.5158 267° West 340 391 21,100 1,260 Climbing New York Center
08:04AM 39.8967 -76.6400 266° West 345 397 22,300 1,140 Climbing New York Center
08:05AM 39.8900 -76.7719 266° West 350 403 23,400 960 Climbing New York Center
08:06AM 39.8836 -76.8958 266° West 355 409 24,200 780 Climbing New York Center
08:07AM 39.8786 -77.0281 267° West 360 414 25,000 720 Climbing New York Center
08:08AM 39.8839 -77.1639 273° West 371 427 25,700 600 Climbing New York Center
08:09AM 39.8844 -77.3075 270° West 383 441 26,300 720 Climbing New York Center
08:10AM 39.8931 -77.4517 274° West 396 456 27,200 720 Climbing New York Center
08:11AM 39.9328 -77.6264 287° West 404 465 28,000 360 Climbing Cleveland Center
08:12AM 39.9594 -77.7689 284° West 414 476 28,000  Level Cleveland Center
08:13AM 39.9775 -77.9144 279° West 414 476 28,000  Level Cleveland Center
08:14AM 39.9956 -78.0600 279° West 414 476 28,000  Level Cleveland Center
08:15AM 40.0214 -78.2028 283° West 407 468 28,000  Level Cleveland Center
08:16AM 40.0367 -78.3325 279° West 407 468 28,000  Level Cleveland Center
08:17AM 40.0600 -78.4728 282° West 407 468 28,000  Level Cleveland Center
08:18AM 40.0836 -78.6186 282° West 407 468 28,000  Level Cleveland Center
08:19AM 40.1317 -78.7556 295° West 407 468 28,000  Level Cleveland Center
08:20AM 40.1900 -78.8844 301° West 413 475 28,000  Level Cleveland Center
08:21AM 40.2400 -79.0219 296° West 418 481 28,000  Level Cleveland Center
08:22AM 40.2939 -79.1567 298° West 418 481 28,000  Level Cleveland Center
08:23AM 40.3456 -79.2944 296° West 418 481 28,000  Level Cleveland Center
08:24AM 40.4011 -79.4297 298° West 424 488 28,000  Level Cleveland Center
08:25AM 40.4567 -79.5597 299° West 418 481 28,000  Level Cleveland Center
08:26AM 40.5097 -79.6900 298° West 413 475 28,000  Level Cleveland Center
08:27AM 40.5711 -79.8178 302° West 408 470 28,000  Level Cleveland Center
08:28AM 40.6283 -79.9456 301° West 408 470 28,000  Level Cleveland Center
08:29AM 40.6872 -80.0903 298° West 408 470 28,000  Level Cleveland Center
08:30AM 40.7294 -80.2269 292° West 408 470 28,000  Level Cleveland Center
08:31AM 40.7717 -80.3692 291° West 403 464 28,000  Level Cleveland Center
08:32AM 40.8156 -80.5008 294° West 403 464 28,000  Level Cleveland Center
08:33AM 40.8550 -80.6381 291° West 408 470 28,000  Level Cleveland Center
08:34AM 40.8967 -80.7561 295° West 408 470 28,000  Level Cleveland Center
08:35AM 40.9361 -80.8964 290° West 403 464 28,000  Level Cleveland Center
08:36AM 40.9794 -81.0314 293° West 403 464 28,000 -300 Level Cleveland Center
08:37AM 40.9600 -81.1769 260° West 395 455 27,500 -840 Descending Cleveland Center
08:38AM 40.9217 -81.3031 248° West 375 432 26,400 -1,140 Descending Cleveland Center
08:39AM 40.9000 -81.4292 257° West 360 414 25,300 -1,080 Descending Cleveland Center
08:40AM 40.9133 -81.5667 277° West 354 407 24,300 -660 Descending Cleveland Center
08:41AM 40.9206 -81.6961 274° West 349 402 24,000 -180 Descending Cleveland Center
08:42AM 40.9275 -81.8253 274° West 354 407 24,000  Level Cleveland Center
08:43AM 40.9764 -81.9336 301° West 327 376 24,000  Level Cleveland Center
08:44AM 41.0697 -81.9822 339° North 337 388 24,000  Level Cleveland Center
08:45AM 41.1669 -82.0311 339° North 361 415 24,000  Level Cleveland Center
08:46AM 41.2433 -82.0908 330° Northwest 361 415 24,000 -1,140 Level Cleveland Center
08:47AM 41.3278 -82.1703 325° Northwest 361 415 21,800 -2,400 Descending Cleveland Center
08:48AM 41.4142 -82.2528 324° Northwest 379 436 19,300 -2,400 Descending Cleveland Center
08:49AM 41.4728 -82.3706 304° West 353 406 17,100 -2,460 Descending Cleveland Center
08:50AM 41.5253 -82.4775 303° West 362 417 14,400 -2,400 Descending Cleveland Center
08:51AM 41.5906 -82.5683 314° West 350 403 12,300 -1,440 Descending Cleveland Center
08:52AM 41.6394 -82.6281 318° Northwest 304 350 12,000 -180 Descending Cleveland Center
08:53AM 41.6964 -82.7050 315° West 281 323 12,000  Level Cleveland Center
08:54AM 41.7636 -82.7908 316° Northwest 280 322 12,000 -60 Level Cleveland Center
08:55AM 41.8086 -82.8397 321° Northwest 252 290 11,900 -600 Descending Cleveland Center
08:56AM 41.8614 -82.9056 317° Northwest 223 257 10,800 -540 Descending Cleveland Center
08:57AM 41.8917 -82.9542 310° West 206 237 10,900 60 Climbing Cleveland Center
08:58AM 41.9236 -83.0250 301° West 214 246 11,000  Climbing Cleveland Center
08:59AM 41.9617 -83.0908 308° West 212 244 10,900  Descending Cleveland Center
09:00AM 41.9917 -83.1478 305° West 203 234 11,000  Climbing Cleveland Center
09:01AM 42.0278 -83.2108 308° West 208 239 11,000 -60 Level Cleveland Center
09:02AM 42.0819 -83.2186 354° North 217 250 10,900 -540 Descending Cleveland Center
09:03AM 42.1397 -83.2406 344° North 218 251 10,000 -1,260 Descending Cleveland Center
09:04AM 42.2031 -83.2069 21° North 223 257 8,300 -1,440 Descending Cleveland Center
09:05AM 42.2539 -83.1725 27° Northeast 219 252 7,100 -1,380 Descending Cleveland Center
09:06AM 42.3172 -83.1358 23° Northeast 216 249 5,600 -1,440 Descending Cleveland Center
09:07AM 42.3519 -83.1653 328° Northwest 180 207 4,200 -1,380 Descending Cleveland Center
09:08AM 42.3339 -83.2292 249° West 174 200 3,000 -960 Descending Cleveland Center
09:09AM 42.2889 -83.2806 220° Southwest 176 203 2,100 -780 Descending Cleveland Center
09:11AM 42.2506 -83.3125 212° Southwest 144 166 1,300 -840 Descending Cleveland Center